Time;durP1;ratioP1;P1;durP2;ratioP2;P2;SDS_P1;SDS_P2;PMS_P1;PMS_P2;Temp;Humidity;BMP_temperature;BMP_pressure;BME280_temperature;BME280_humidity;BME280_pressure;Samples;Min_cycle;Max_cycle;Signal;HPM_P1;HPM_P2
2022/11/23 00:00:42;;;;;;;20.00;5.27;;;;;;;7.34;100.00;99408.84;5283710;28;20066;-74
2022/11/23 00:03:14;;;;;;;16.73;4.53;;;;;;;7.34;100.00;99406.25;5283737;28;20040;-74
2022/11/23 00:05:46;;;;;;;11.63;3.92;;;;;;;7.33;100.00;99408.00;5282326;28;20029;-74
2022/11/23 00:08:17;;;;;;;16.37;4.87;;;;;;;7.35;100.00;99415.75;5284038;28;20033;-74
2022/11/23 00:10:48;;;;;;;17.60;5.10;;;;;;;7.35;100.00;99411.41;5284040;28;20165;-73
2022/11/23 00:13:20;;;;;;;18.00;4.13;;;;;;;7.33;100.00;99415.78;5283379;28;20032;-73
2022/11/23 00:15:51;;;;;;;15.27;4.20;;;;;;;7.37;100.00;99420.00;5282162;28;20068;-72
2022/11/23 00:18:22;;;;;;;15.17;3.73;;;;;;;7.36;100.00;99412.25;5285487;28;20040;-73
2022/11/23 00:20:54;;;;;;;21.27;5.03;;;;;;;7.38;100.00;99423.47;5288396;28;20032;-74
2022/11/23 00:23:25;;;;;;;13.40;3.87;;;;;;;7.37;100.00;99417.41;5287638;28;20031;-74
2022/11/23 00:25:56;;;;;;;15.73;4.03;;;;;;;7.37;100.00;99421.75;5287968;28;20075;-74
2022/11/23 00:28:28;;;;;;;15.40;4.80;;;;;;;7.38;100.00;99420.88;5287581;28;20036;-73
2022/11/23 00:30:59;;;;;;;14.77;3.83;;;;;;;7.40;100.00;99432.91;5285824;28;20029;-74
2022/11/23 00:33:31;;;;;;;18.13;4.07;;;;;;;7.42;100.00;99433.75;5287452;28;20035;-74
2022/11/23 00:36:05;;;;;;;13.57;4.00;;;;;;;7.44;100.00;99437.16;5287550;28;20033;-74
2022/11/23 00:38:37;;;;;;;13.68;4.47;;;;;;;7.43;100.00;99432.84;5287045;28;20077;-74
2022/11/23 00:41:20;;;;;;;13.97;3.70;;;;;;;7.46;100.00;99442.31;5287535;28;20477;-74
2022/11/23 00:43:52;;;;;;;;;;;;;;;7.48;100.00;99441.38;5287735;28;20063;-73
2022/11/23 00:46:26;;;;;;;11.07;3.13;;;;;;;7.46;100.00;99437.13;5287192;28;19912;-74
2022/11/23 00:48:57;;;;;;;11.77;3.38;;;;;;;7.48;100.00;99441.38;5286921;28;20103;-73
2022/11/23 00:51:34;;;;;;;18.77;3.83;;;;;;;7.46;100.00;99432.78;5286023;28;20166;-73
2022/11/23 00:54:06;;;;;;;14.82;3.47;;;;;;;7.48;100.00;99438.78;5287602;28;20016;-74
2022/11/23 00:56:37;;;;;;;11.73;3.57;;;;;;;7.41;100.00;99437.22;5286980;28;20090;-73
2022/11/23 00:59:08;;;;;;;16.67;2.90;;;;;;;7.43;100.00;99448.41;5286962;28;20082;-74
2022/11/23 01:01:40;;;;;;;13.90;3.73;;;;;;;7.44;100.00;99444.09;5287015;28;20032;-73
2022/11/23 01:04:11;;;;;;;16.43;4.07;;;;;;;7.40;100.00;99443.28;5287153;28;20115;-73
2022/11/23 01:06:43;;;;;;;12.43;3.77;;;;;;;7.44;100.00;99450.13;5286716;28;20167;-73
2022/11/23 01:09:17;;;;;;;13.83;4.27;;;;;;;7.40;100.00;99442.44;5285699;28;20544;-73
2022/11/23 01:11:48;;;;;;;12.55;3.50;;;;;;;7.40;100.00;99440.69;5286770;28;20345;-73
2022/11/23 01:14:21;;;;;;;14.37;3.03;;;;;;;7.42;100.00;99445.84;5286911;28;20035;-73
2022/11/23 01:16:52;;;;;;;12.05;3.83;;;;;;;7.39;100.00;99448.50;5287140;28;20148;-73
2022/11/23 01:19:24;;;;;;;14.60;3.23;;;;;;;7.39;100.00;99441.59;5285571;28;20616;-73
2022/11/23 01:21:55;;;;;;;15.37;3.90;;;;;;;7.38;100.00;99450.25;5286702;28;20090;-73
2022/11/23 01:24:26;;;;;;;11.20;3.20;;;;;;;7.44;100.00;99454.47;5286732;28;20036;-73
2022/11/23 01:26:58;;;;;;;17.37;3.53;;;;;;;7.44;100.00;99450.13;5286848;28;20031;-73
2022/11/23 01:29:29;;;;;;;10.47;3.23;;;;;;;7.40;100.00;99445.88;5286092;28;20022;-72
2022/11/23 01:32:01;;;;;;;12.97;3.40;;;;;;;7.42;100.00;99457.09;5286532;28;20119;-72
2022/11/23 01:34:32;;;;;;;12.77;3.10;;;;;;;7.45;100.00;99461.34;5286885;28;20029;-72
2022/11/23 01:37:04;;;;;;;12.57;3.60;;;;;;;7.47;100.00;99470.78;5286514;28;20052;-73
2022/11/23 01:39:35;;;;;;;10.73;3.03;;;;;;;7.48;100.00;99466.44;5286751;28;20519;-73
2022/11/23 01:42:07;;;;;;;12.53;3.37;;;;;;;7.49;100.00;99468.16;5286249;28;20033;-72
2022/11/23 01:44:40;;;;;;;12.30;3.40;;;;;;;7.48;100.00;99474.22;5286297;28;20028;-72
2022/11/23 01:47:11;;;;;;;14.38;3.55;;;;;;;7.46;100.00;99474.25;5286121;28;20051;-72
2022/11/23 01:49:49;;;;;;;13.33;3.43;;;;;;;7.50;100.00;99475.03;5286098;28;20028;-73
2022/11/23 01:52:25;;;;;;;15.18;3.78;;;;;;;7.51;100.00;99474.16;5286286;28;20052;-73
2022/11/23 01:54:57;;;;;;;14.07;3.30;;;;;;;7.51;100.00;99481.09;5284761;28;20033;-73
2022/11/23 01:57:35;;;;;;;15.40;3.63;;;;;;;7.52;100.00;99475.88;5285953;28;20456;-73
2022/11/23 02:00:07;;;;;;;14.70;3.03;;;;;;;7.53;100.00;99474.97;5285821;28;20132;-73
2022/11/23 02:02:45;;;;;;;17.70;3.53;;;;;;;7.55;100.00;99477.53;5285850;28;20056;-72
2022/11/23 02:05:20;;;;;;;10.18;3.10;;;;;;;7.53;100.00;99484.50;5285927;28;20027;-72
2022/11/23 02:07:52;;;;;;;10.90;3.40;;;;;;;7.54;100.00;99484.47;5285924;28;20333;-73
2022/11/23 02:10:23;;;;;;;13.02;3.42;;;;;;;7.55;100.00;99483.59;5285748;28;20028;-72
2022/11/23 02:12:55;;;;;;;15.95;3.22;;;;;;;7.55;100.00;99493.09;5285671;28;20063;-73
2022/11/23 02:15:26;;;;;;;10.70;2.90;;;;;;;7.57;100.00;99488.75;5285414;28;20071;-73
2022/11/23 02:17:59;;;;;;;10.77;3.00;;;;;;;7.58;100.00;99488.72;5285109;28;20119;-72
2022/11/23 02:20:31;;;;;;;13.30;3.00;;;;;;;7.60;100.00;99486.94;5285493;28;20048;-73
2022/11/23 02:23:02;;;;;;;11.80;3.10;;;;;;;7.64;100.00;99483.38;5284163;28;20037;-73
2022/11/23 02:26:00;;;;;;;13.80;3.77;;;;;;;7.62;100.00;99486.91;5285603;28;20024;-73
2022/11/23 02:28:45;;;;;;;14.73;3.50;;;;;;;7.63;100.00;99491.19;5276430;28;20040;-72
2022/11/23 02:31:17;;;;;;;18.10;3.88;;;;;;;7.65;100.00;99492.03;5284232;28;20032;-73
2022/11/23 02:33:48;;;;;;;12.70;2.90;;;;;;;7.63;100.00;99494.66;5284922;28;20038;-73
2022/11/23 02:36:46;;;;;;;13.80;3.50;;;;;;;7.65;100.00;99505.84;5284593;28;20038;-75
2022/11/23 02:39:29;;;;;;;14.50;5.53;;;;;;;7.65;100.00;99503.25;5284636;28;20054;-72
2022/11/23 02:42:00;;;;;;;18.48;3.80;;;;;;;7.64;100.00;99505.88;5284786;28;20029;-72
2022/11/23 02:44:40;;;;;;;11.33;3.00;;;;;;;7.70;100.00;99497.13;5285153;28;20082;-73
2022/11/23 02:47:12;;;;;;;17.20;3.63;;;;;;;7.63;100.00;99494.66;5284172;28;20074;-72
2022/11/23 02:49:48;;;;;;;15.60;3.27;;;;;;;7.61;100.00;99496.41;5285523;28;20028;-72
2022/11/23 02:52:19;;;;;;;12.40;3.20;;;;;;;7.60;100.00;99504.22;5284554;28;20487;-73
2022/11/23 02:54:51;;;;;;;16.30;3.60;;;;;;;7.60;100.00;99499.91;5284383;28;20040;-72
2022/11/23 02:57:22;;;;;;;14.03;3.90;;;;;;;7.59;100.00;99512.91;5284809;28;20036;-72
2022/11/23 02:59:53;;;;;;;15.53;3.63;;;;;;;7.52;100.00;99509.59;5284872;28;20028;-73
2022/11/23 03:02:25;;;;;;;14.30;3.63;;;;;;;7.45;100.00;99508.88;5283554;28;20123;-73
2022/11/23 03:04:56;;;;;;;16.80;4.33;;;;;;;7.44;100.00;99503.72;5284728;28;20056;-73
2022/11/23 03:07:27;;;;;;;16.80;3.93;;;;;;;7.42;100.00;99505.47;5284290;28;20051;-73
2022/11/23 03:09:59;;;;;;;13.73;3.30;;;;;;;7.44;100.00;99504.56;5283782;28;20066;-73
2022/11/23 03:12:30;;;;;;;20.07;5.47;;;;;;;7.44;100.00;99511.50;5284707;28;20463;-73
2022/11/23 03:15:02;;;;;;;12.60;3.97;;;;;;;7.44;100.00;99506.31;5283801;28;20150;-73
2022/11/23 03:17:34;;;;;;;18.60;4.20;;;;;;;7.46;100.00;99507.13;5283079;28;20082;-73
2022/11/23 03:20:06;;;;;;;17.17;3.43;;;;;;;7.49;100.00;99515.69;5283668;28;20063;-74
2022/11/23 03:22:37;;;;;;;9.83;3.13;;;;;;;7.46;100.00;99513.16;5283963;28;20028;-72
2022/11/23 03:25:09;;;;;;;16.97;3.93;;;;;;;7.45;100.00;99508.00;5284057;28;20317;-73
2022/11/23 03:27:40;;;;;;;12.43;3.53;;;;;;;7.45;100.00;99513.19;5282791;28;20383;-73
2022/11/23 03:30:12;;;;;;;22.37;5.50;;;;;;;7.43;100.00;99512.38;5283686;28;20077;-73
2022/11/23 03:32:43;;;;;;;16.83;4.77;;;;;;;7.38;100.00;99506.44;5284675;28;20040;-73
2022/11/23 03:35:15;;;;;;;20.73;4.70;;;;;;;7.36;100.00;99508.19;5284068;28;20113;-72
2022/11/23 03:37:46;;;;;;;11.90;3.40;;;;;;;7.37;100.00;99510.75;5282828;28;20028;-73
2022/11/23 03:40:17;;;;;;;16.87;4.13;;;;;;;7.37;100.00;99496.94;5284272;28;20360;-72
2022/11/23 03:42:49;;;;;;;16.33;4.37;;;;;;;7.37;100.00;99515.94;5283699;28;20036;-73
2022/11/23 03:45:20;;;;;;;14.43;3.77;;;;;;;7.40;100.00;99509.84;5283969;28;20384;-73
2022/11/23 03:47:52;;;;;;;14.63;3.83;;;;;;;7.40;100.00;99505.50;5284427;28;20025;-73
2022/11/23 03:50:23;;;;;;;19.40;4.97;;;;;;;7.44;100.00;99508.91;5282965;28;20074;-72
2022/11/23 03:52:55;;;;;;;15.10;3.60;;;;;;;7.42;100.00;99506.34;5283551;28;20438;-73
2022/11/23 03:55:27;;;;;;;14.95;4.03;;;;;;;7.39;100.00;99502.94;5265896;28;20029;-73
2022/11/23 03:57:58;;;;;;;16.50;5.33;;;;;;;7.36;100.00;99498.69;5284036;28;20102;-73
2022/11/23 04:00:30;;;;;;;10.80;3.27;;;;;;;7.38;100.00;99515.06;5283461;28;20039;-74
2022/11/23 04:03:01;;;;;;;16.03;4.20;;;;;;;7.36;100.00;99509.06;5283391;28;20059;-74
2022/11/23 04:05:32;;;;;;;14.27;3.90;;;;;;;7.39;100.00;99510.72;5283709;28;20032;-73
2022/11/23 04:08:04;;;;;;;20.00;4.50;;;;;;;7.37;100.00;99520.28;5283347;28;20036;-73
2022/11/23 04:10:35;;;;;;;16.63;3.73;;;;;;;7.38;100.00;99517.66;5283725;28;20025;-73
2022/11/23 04:13:07;;;;;;;19.47;5.07;;;;;;;7.40;100.00;99515.03;5283635;28;20036;-73
2022/11/23 04:15:38;;;;;;;17.77;3.73;;;;;;;7.43;100.00;99518.41;5283515;28;20386;-73
2022/11/23 04:18:09;;;;;;;15.60;3.53;;;;;;;7.44;100.00;99520.13;5283588;28;20091;-73
2022/11/23 04:20:41;;;;;;;15.73;3.27;;;;;;;7.47;100.00;99511.41;5283784;28;20058;-73
2022/11/23 04:23:12;;;;;;;17.00;4.00;;;;;;;7.48;100.00;99515.72;5282884;28;20037;-72
2022/11/23 04:25:44;;;;;;;15.47;3.97;;;;;;;7.53;100.00;99516.47;5283502;28;20037;-73
2022/11/23 04:28:16;;;;;;;11.15;3.10;;;;;;;7.53;100.00;99511.28;5283339;28;20039;-73
2022/11/23 04:30:47;;;;;;;18.37;3.87;;;;;;;7.51;100.00;99502.69;5283836;28;20036;-72
2022/11/23 04:33:18;;;;;;;18.70;5.10;;;;;;;7.45;100.00;99506.28;5283861;28;20048;-73
2022/11/23 04:35:50;;;;;;;18.40;4.80;;;;;;;7.40;100.00;99504.66;5283358;28;20454;-73
2022/11/23 04:38:21;;;;;;;17.17;4.37;;;;;;;7.39;100.00;99501.22;5283614;28;20060;-72
2022/11/23 04:40:53;;;;;;;12.07;3.30;;;;;;;7.37;100.00;99502.97;5283523;28;20032;-72
2022/11/23 04:43:24;;;;;;;12.23;4.10;;;;;;;7.38;100.00;99511.63;5283605;28;20071;-73
2022/11/23 04:45:55;;;;;;;15.13;3.43;;;;;;;7.34;100.00;99517.72;5283271;28;20032;-72
2022/11/23 04:48:27;;;;;;;17.87;4.03;;;;;;;7.33;100.00;99516.03;5282078;28;20040;-73
2022/11/23 04:50:58;;;;;;;18.37;3.77;;;;;;;7.29;100.00;99508.34;5283462;28;20115;-72
2022/11/23 04:53:29;;;;;;;16.00;4.00;;;;;;;7.20;100.00;99518.03;5283165;28;20028;-73
2022/11/23 04:56:01;;;;;;;14.07;4.33;;;;;;;7.14;100.00;99521.56;5282896;28;20029;-73
2022/11/23 04:58:35;;;;;;;20.37;3.73;;;;;;;7.05;100.00;99516.56;5283420;28;20029;-72
2022/11/23 05:01:06;;;;;;;15.43;3.83;;;;;;;6.92;100.00;99508.16;5282956;28;20085;-73
2022/11/23 05:03:38;;;;;;;14.70;3.60;;;;;;;6.85;100.00;99515.19;5283521;28;20024;-72
2022/11/23 05:06:09;;;;;;;13.53;3.60;;;;;;;6.79;100.00;99511.84;5287220;28;20037;-72
2022/11/23 05:08:41;;;;;;;13.13;3.60;;;;;;;6.70;100.00;99507.72;5286897;28;20561;-73
2022/11/23 05:11:12;;;;;;;17.10;4.10;;;;;;;6.65;100.00;99505.19;5285456;28;20486;-73
2022/11/23 05:13:43;;;;;;;14.83;4.43;;;;;;;6.63;100.00;99506.09;5287041;28;20032;-71
2022/11/23 05:16:15;;;;;;;24.87;6.57;;;;;;;6.59;100.00;99497.53;5286982;28;20069;-73
2022/11/23 05:18:46;;;;;;;16.67;5.43;;;;;;;6.64;100.00;99502.63;5285566;28;20025;-73
2022/11/23 05:21:17;;;;;;;20.90;4.63;;;;;;;6.69;100.00;99501.66;5286407;28;20100;-73
2022/11/23 05:23:49;;;;;;;17.30;3.93;;;;;;;6.71;100.00;99504.22;5286678;28;20035;-73
2022/11/23 05:26:20;;;;;;;18.67;6.10;;;;;;;6.72;100.00;99504.19;5287065;28;20029;-73
2022/11/23 05:28:51;;;;;;;24.50;5.20;;;;;;;6.73;100.00;99498.16;5286599;28;20465;-73
2022/11/23 05:31:23;;;;;;;19.43;4.33;;;;;;;6.77;100.00;99498.09;5286751;28;20456;-72
2022/11/23 05:33:54;;;;;;;23.47;5.17;;;;;;;6.80;100.00;99496.28;5285109;28;20032;-72
2022/11/23 05:36:25;;;;;;;19.83;5.00;;;;;;;6.80;100.00;99501.47;5286585;28;20033;-72
2022/11/23 05:38:57;;;;;;;14.53;4.53;;;;;;;6.80;100.00;99501.47;5285395;28;20071;-72
2022/11/23 05:41:28;;;;;;;19.37;4.83;;;;;;;6.76;100.00;99507.56;5286470;28;20055;-72
2022/11/23 05:43:59;;;;;;;15.67;4.30;;;;;;;6.73;100.00;99507.66;5285923;28;20059;-71
2022/11/23 05:46:31;;;;;;;17.23;5.13;;;;;;;6.71;100.00;99510.28;5286156;28;20498;-72
2022/11/23 05:49:02;;;;;;;22.67;4.77;;;;;;;6.75;100.00;99518.84;5286089;28;20032;-72
2022/11/23 05:51:33;;;;;;;19.83;4.87;;;;;;;6.71;100.00;99518.03;5286154;28;20039;-72
2022/11/23 05:54:05;;;;;;;17.87;5.40;;;;;;;6.72;100.00;99511.97;5284825;28;20107;-71
2022/11/23 05:56:36;;;;;;;24.40;5.93;;;;;;;6.71;100.00;99517.16;5285918;28;20056;-72
2022/11/23 05:59:08;;;;;;;14.50;4.87;;;;;;;6.68;100.00;99515.50;5285509;28;20384;-71
2022/11/23 06:01:39;;;;;;;19.13;5.60;;;;;;;6.68;100.00;99515.50;5286328;28;20059;-71
2022/11/23 06:04:12;;;;;;;20.17;4.67;;;;;;;6.68;100.00;99510.31;5284024;28;20024;-71
2022/11/23 06:06:43;;;;;;;;;;;;;;;6.66;100.00;99511.22;5286856;28;20024;-72
2022/11/23 06:09:14;;;;;;;18.38;5.05;;;;;;;6.69;100.00;99514.59;5285882;28;19908;-71
2022/11/23 06:11:47;;;;;;;18.50;5.07;;;;;;;6.74;100.00;99512.78;5285578;28;20025;-73
2022/11/23 06:14:18;;;;;;;17.15;5.65;;;;;;;6.79;100.00;99522.22;5284180;28;20055;-73
2022/11/23 06:16:50;;;;;;;22.93;5.07;;;;;;;6.79;100.00;99519.63;5285329;28;20040;-72
2022/11/23 06:19:21;;;;;;;25.00;6.60;;;;;;;6.85;100.00;99516.94;5286078;28;20360;-74
2022/11/23 06:21:52;;;;;;;16.03;4.63;;;;;;;6.86;100.00;99521.22;5285677;28;20044;-72
2022/11/23 06:24:26;;;;;;;20.20;4.30;;;;;;;6.89;100.00;99526.34;5285424;28;20098;-72
2022/11/23 06:26:57;;;;;;;18.17;4.22;;;;;;;6.91;100.00;99522.84;5284818;28;20352;-72
2022/11/23 06:29:29;;;;;;;20.97;5.33;;;;;;;6.90;100.00;99525.47;5285183;28;20036;-73
2022/11/23 06:32:00;;;;;;;17.83;4.23;;;;;;;6.84;100.00;99523.84;5285757;28;20029;-73
2022/11/23 06:34:31;;;;;;;21.63;4.47;;;;;;;6.81;100.00;99525.63;5284998;28;20036;-73
2022/11/23 06:37:03;;;;;;;24.70;4.57;;;;;;;6.81;100.00;99521.31;5283721;28;20062;-73
2022/11/23 06:39:34;;;;;;;19.60;4.47;;;;;;;6.80;100.00;99527.38;5285525;28;20029;-73
2022/11/23 06:42:05;;;;;;;20.27;4.73;;;;;;;6.78;100.00;99523.09;5284434;28;20036;-72
2022/11/23 06:44:37;;;;;;;13.93;4.00;;;;;;;6.75;100.00;99522.28;5285226;28;20040;-73
2022/11/23 06:47:08;;;;;;;19.80;6.40;;;;;;;6.77;100.00;99529.16;5284587;28;20028;-72
2022/11/23 06:49:40;;;;;;;14.97;4.57;;;;;;;6.76;100.00;99530.88;5285268;28;20025;-73
2022/11/23 06:52:12;;;;;;;20.80;5.10;;;;;;;6.76;100.00;99533.47;5284456;28;20033;-72
2022/11/23 06:54:44;;;;;;;20.92;5.20;;;;;;;6.75;100.00;99531.78;5284380;28;20625;-73
2022/11/23 06:57:16;;;;;;;23.90;3.75;;;;;;;6.73;100.00;99536.16;5284371;28;20058;-73
2022/11/23 06:59:47;;;;;;;24.23;5.17;;;;;;;6.74;100.00;99541.28;5284940;28;20418;-73
2022/11/23 07:02:19;;;;;;;17.77;4.60;;;;;;;6.72;100.00;99548.22;5268331;28;20082;-72
2022/11/23 07:04:51;;;;;;;20.90;4.73;;;;;;;6.71;100.00;99556.00;5286718;28;20036;-73
2022/11/23 07:07:23;;;;;;;20.30;4.90;;;;;;;6.68;100.00;99554.34;5284865;28;20032;-72
2022/11/23 07:09:54;;;;;;;20.97;5.43;;;;;;;6.67;100.00;99554.38;5285319;28;20025;-73
2022/11/23 07:12:26;;;;;;;20.50;6.03;;;;;;;6.70;100.00;99559.50;5283185;28;20056;-71
2022/11/23 07:14:59;;;;;;;21.73;4.88;;;;;;;6.71;100.00;99563.78;5282730;28;20049;-71
2022/11/23 07:17:30;;;;;;;24.17;4.47;;;;;;;6.67;100.00;99572.50;5283432;28;20463;-73
2022/11/23 07:20:02;;;;;;;16.30;4.30;;;;;;;6.62;100.00;99569.97;5284325;28;20379;-72
2022/11/23 07:22:34;;;;;;;19.10;4.40;;;;;;;6.56;100.00;99577.84;5284693;28;20029;-72
2022/11/23 07:25:05;;;;;;;18.67;4.60;;;;;;;6.48;100.00;99574.50;5284103;28;20499;-70
2022/11/23 07:27:37;;;;;;;22.90;4.80;;;;;;;6.41;100.00;99578.06;5283708;28;20055;-72
2022/11/23 07:30:09;;;;;;;16.10;4.13;;;;;;;6.39;100.00;99586.72;5284865;28;20263;-73
2022/11/23 07:32:40;;;;;;;18.52;4.80;;;;;;;6.32;100.00;99577.31;5284220;28;20375;-72
2022/11/23 07:35:12;;;;;;;19.57;4.57;;;;;;;6.28;100.00;99587.75;5284373;28;20024;-73
2022/11/23 07:37:44;;;;;;;20.33;3.63;;;;;;;6.27;100.00;99586.06;5283922;28;20073;-73
2022/11/23 07:40:15;;;;;;;15.70;4.50;;;;;;;6.27;100.00;99591.22;5283646;28;20097;-73
2022/11/23 07:42:47;;;;;;;16.57;3.53;;;;;;;6.28;100.00;99598.09;5284010;28;20115;-73
2022/11/23 07:45:18;;;;;;;18.97;4.30;;;;;;;6.25;100.00;99600.72;5283880;28;20025;-72
2022/11/23 07:48:00;;;;;;;19.17;4.73;;;;;;;6.24;100.00;99606.78;5283843;28;20043;-73
2022/11/23 07:50:32;;;;;;;14.20;3.53;;;;;;;6.23;100.00;99602.47;5283669;28;20043;-72
2022/11/23 07:53:05;;;;;;;15.95;4.28;;;;;;;6.20;100.00;99606.84;5283509;28;20043;-72
2022/11/23 07:55:36;;;;;;;17.52;4.97;;;;;;;6.24;100.00;99619.72;5283644;28;20032;-72
2022/11/23 07:58:09;;;;;;;18.43;4.10;;;;;;;6.28;100.00;99616.22;5283761;28;20472;-72
2022/11/23 08:00:40;;;;;;;18.08;4.40;;;;;;;6.29;100.00;99620.53;5284126;28;20033;-72
2022/11/23 08:03:13;;;;;;;17.70;4.20;;;;;;;6.36;100.00;99604.03;5283522;28;20059;-73
2022/11/23 08:05:44;;;;;;;;;;;;;;;6.42;100.00;99616.03;5283622;28;20032;-72
2022/11/23 08:08:16;;;;;;;22.33;4.55;;;;;;;6.46;99.73;99613.38;5283235;28;20390;-72
2022/11/23 08:10:47;;;;;;;20.77;5.03;;;;;;;6.54;98.90;99623.63;5282020;28;20440;-72
2022/11/23 08:13:19;;;;;;;15.83;4.60;;;;;;;6.55;98.76;99618.41;5282003;28;20033;-72
2022/11/23 08:15:50;;;;;;;20.33;4.73;;;;;;;6.56;98.34;99614.94;5281659;28;20412;-72
2022/11/23 08:18:25;;;;;;;16.53;3.60;;;;;;;6.61;97.52;99614.03;5282025;28;20449;-72
2022/11/23 08:21:01;;;;;;;15.25;3.95;;;;;;;6.67;97.09;99626.88;5283353;28;20121;-72
2022/11/23 08:23:33;;;;;;;15.45;3.45;;;;;;;6.74;97.03;99618.13;5283643;28;20103;-72
2022/11/23 08:26:04;;;;;;;21.13;4.53;;;;;;;6.82;96.20;99613.66;5283312;28;20111;-73
2022/11/23 08:28:37;;;;;;;17.53;4.87;;;;;;;6.92;95.90;99615.25;5283114;28;20298;-73
2022/11/23 08:31:10;;;;;;;;;;;;;;;7.06;94.88;99617.59;5284059;28;20056;-72
2022/11/23 08:33:41;;;;;;;16.48;4.38;;;;;;;7.14;93.76;99620.06;5282831;28;19987;-72
2022/11/23 08:36:13;;;;;;;16.53;5.20;;;;;;;7.25;93.27;99625.06;5283068;28;20036;-71
2022/11/23 08:38:44;;;;;;;16.30;3.57;;;;;;;7.34;92.49;99624.03;5282868;28;20024;-73
2022/11/23 08:41:19;;;;;;;11.90;4.00;;;;;;;7.47;92.00;99633.28;5287173;28;20028;-73
2022/11/23 08:43:51;;;;;;;12.07;3.55;;;;;;;7.53;91.46;99630.56;5287379;28;20028;-71
2022/11/23 08:46:22;;;;;;;12.67;3.97;;;;;;;7.65;90.41;99635.53;5287594;28;20542;-71
2022/11/23 08:48:53;;;;;;;17.20;4.03;;;;;;;7.73;89.52;99621.56;5287279;28;20098;-72
2022/11/23 08:51:25;;;;;;;15.63;4.30;;;;;;;7.89;89.43;99642.84;5286995;28;20039;-71
2022/11/23 08:53:56;;;;;;;13.40;3.50;;;;;;;7.97;87.74;99643.56;5287257;28;20078;-71
2022/11/23 08:56:27;;;;;;;14.60;4.30;;;;;;;8.04;87.42;99642.56;5287436;28;20043;-70
2022/11/23 08:58:59;;;;;;;15.23;4.23;;;;;;;8.12;86.37;99632.03;5287149;28;20025;-72
2022/11/23 09:01:30;;;;;;;15.07;4.00;;;;;;;8.15;86.23;99632.81;5287093;28;20036;-71
2022/11/23 09:04:03;;;;;;;16.37;4.77;;;;;;;8.31;85.98;99622.94;5287087;28;20044;-72
2022/11/23 09:06:34;;;;;;;15.65;3.85;;;;;;;8.32;85.15;99626.38;5286881;28;20027;-72
2022/11/23 09:09:06;;;;;;;15.00;4.27;;;;;;;8.41;83.57;99615.78;5285395;28;20024;-72
2022/11/23 09:11:37;;;;;;;14.13;4.43;;;;;;;8.60;84.16;99624.06;5287256;28;20405;-72
2022/11/23 09:14:08;;;;;;;14.33;3.03;;;;;;;8.84;83.26;99622.63;5286916;28;20032;-71
2022/11/23 09:16:40;;;;;;;12.10;3.50;;;;;;;8.91;81.64;99621.56;5286507;28;20415;-71
2022/11/23 09:19:14;;;;;;;15.63;3.27;;;;;;;8.88;81.01;99619.03;5286856;28;20111;-71
2022/11/23 09:21:46;;;;;;;18.45;4.47;;;;;;;8.86;80.28;99615.63;5286747;28;20032;-71
2022/11/23 09:24:17;;;;;;;14.87;4.63;;;;;;;8.81;79.85;99614.91;5286908;28;20034;-74
2022/11/23 09:26:48;;;;;;;11.70;3.47;;;;;;;9.02;80.78;99610.06;5285525;28;20582;-71
2022/11/23 09:29:20;;;;;;;16.00;4.60;;;;;;;9.05;79.93;99608.22;5286571;28;20112;-73
2022/11/23 09:31:51;;;;;;;16.93;3.63;;;;;;;9.07;78.69;99609.03;5286414;28;20476;-73
2022/11/23 09:34:23;;;;;;;14.03;3.53;;;;;;;9.05;78.15;99617.78;5286406;28;20028;-73
2022/11/23 09:36:56;;;;;;;12.60;3.73;;;;;;;9.13;77.74;99603.69;5286423;28;20040;-73
2022/11/23 09:39:27;;;;;;;14.20;3.97;;;;;;;9.25;77.10;99612.06;5286118;28;20079;-72
2022/11/23 09:42:13;;;;;;;18.37;4.20;;;;;;;9.27;77.16;99595.53;5285959;28;20028;-72
2022/11/23 09:45:03;;;;;;;14.20;3.78;;;;;;;9.41;78.03;99584.75;5286716;28;20036;-72
2022/11/23 09:47:59;;;;;;;10.30;3.42;;;;;;;9.48;75.87;99612.31;5286716;28;20032;-73
2022/11/23 09:50:51;;;;;;;10.57;3.63;;;;;;;9.55;75.09;99588.75;5285538;28;20088;-73
2022/11/23 09:53:44;;;;;;;15.50;4.15;;;;;;;9.48;74.95;99580.22;5285974;28;20033;-72
2022/11/23 09:56:35;;;;;;;12.85;3.28;;;;;;;9.85;74.25;99573.97;5286251;28;20025;-73
2022/11/23 09:59:29;;;;;;;11.10;3.60;;;;;;;10.07;74.52;99569.00;5286671;28;20039;-73
2022/11/23 10:02:01;;;;;;;13.73;3.58;;;;;;;9.95;72.71;99574.56;5277440;28;20052;-73
2022/11/23 10:04:34;;;;;;;11.87;3.33;;;;;;;10.31;72.53;99571.75;5285774;28;20028;-73
2022/11/23 10:07:25;;;;;;;13.60;3.70;;;;;;;10.69;70.92;99573.16;5285619;28;20085;-72
2022/11/23 10:10:03;;;;;;;16.33;3.67;;;;;;;10.48;69.93;99551.25;5285858;28;20043;-73
2022/11/23 10:12:50;;;;;;;11.32;2.97;;;;;;;10.67;69.87;99551.50;5284472;28;20455;-71
2022/11/23 10:15:39;;;;;;;9.65;3.17;;;;;;;10.72;69.07;99546.13;5285686;28;20215;-71
2022/11/23 10:18:24;;;;;;;13.23;3.28;;;;;;;10.85;68.79;99547.44;5286090;28;20033;-71
2022/11/23 10:21:01;;;;;;;8.00;2.63;;;;;;;11.14;68.16;99543.00;5285565;28;20029;-72
2022/11/23 10:23:53;;;;;;;13.02;3.15;;;;;;;11.22;67.42;99545.31;5285554;28;20028;-72
2022/11/23 10:26:45;;;;;;;11.45;2.72;;;;;;;11.35;66.52;99548.31;5285783;28;20028;-72
2022/11/23 10:29:35;;;;;;;9.63;2.95;;;;;;;11.71;65.97;99558.34;5287380;28;20056;-72
2022/11/23 10:32:24;;;;;;;9.82;3.13;;;;;;;11.82;64.99;99551.81;5287973;28;20025;-72
2022/11/23 10:35:11;;;;;;;10.55;4.32;;;;;;;12.00;63.87;99550.28;5285381;28;20552;-72
2022/11/23 10:37:43;;;;;;;14.38;3.65;;;;;;;12.09;62.51;99551.72;5285379;28;20051;-72
2022/11/23 10:40:14;;;;;;;9.60;3.30;;;;;;;12.22;62.39;99541.63;5285989;28;20036;-73
2022/11/23 10:43:13;;;;;;;10.27;3.80;;;;;;;12.32;62.53;99547.34;5285572;28;20024;-72
2022/11/23 10:45:45;;;;;;;10.70;3.53;;;;;;;12.52;61.44;99536.06;5285001;28;20459;-72
2022/11/23 10:48:35;;;;;;;8.43;2.83;;;;;;;13.11;61.78;99534.47;5284666;28;20025;-71
2022/11/23 10:51:22;;;;;;;11.57;3.15;;;;;;;13.14;60.77;99534.34;5284518;28;20025;-71
2022/11/23 10:54:20;;;;;;;8.48;2.85;;;;;;;12.98;61.30;99535.94;5285245;28;20406;-72
2022/11/23 10:56:52;;;;;;;10.40;3.47;;;;;;;12.12;62.10;99532.44;5277396;28;20033;-70
2022/11/23 10:59:25;;;;;;;;;;;;;;;12.42;62.81;99522.53;5285258;28;20024;-71
2022/11/23 11:02:21;;;;;;;9.05;2.28;;;;;;;12.64;62.24;99516.41;5282720;28;19913;-72
2022/11/23 11:05:28;;;;;;;12.05;3.42;;;;;;;13.45;59.98;99519.94;5284755;28;20097;-71
2022/11/23 11:08:10;;;;;;;8.80;2.33;;;;;;;13.76;57.15;99508.06;5284241;28;20028;-72
2022/11/23 11:10:48;;;;;;;8.88;2.80;;;;;;;13.50;57.57;99503.09;5284691;28;20035;-71
2022/11/23 11:13:21;;;;;;;8.73;2.45;;;;;;;13.38;57.63;99494.94;5284281;28;20083;-71
2022/11/23 11:16:05;;;;;;;10.32;3.47;;;;;;;13.08;58.32;99511.91;5284528;28;20101;-71
2022/11/23 11:18:37;;;;;;;10.25;3.30;;;;;;;12.19;60.23;99498.19;5284752;28;20052;-71
2022/11/23 11:21:33;;;;;;;10.93;3.03;;;;;;;11.68;62.84;99505.34;5284560;28;20070;-70
2022/11/23 11:24:13;;;;;;;8.95;2.75;;;;;;;11.49;64.13;99506.94;5284599;28;20025;-70
2022/11/23 11:26:56;;;;;;;17.45;3.80;;;;;;;11.29;65.09;99495.47;5284668;28;20220;-72
2022/11/23 11:29:37;;;;;;;7.97;2.28;;;;;;;11.57;64.85;99485.78;5283563;28;20040;-71
2022/11/23 11:32:32;;;;;;;10.02;2.45;;;;;;;12.18;62.57;99470.34;5282725;28;20074;-71
2022/11/23 11:35:45;;;;;;;7.72;2.97;;;;;;;13.11;60.48;99469.91;5284614;28;20037;-71
2022/11/23 11:38:28;;;;;;;14.65;3.60;;;;;;;13.28;59.68;99473.53;5254985;28;20051;-71
2022/11/23 11:41:06;;;;;;;7.82;2.22;;;;;;;13.77;57.24;99471.31;5284527;28;20047;-71
2022/11/23 11:43:47;;;;;;;7.85;2.40;;;;;;;14.14;57.52;99463.50;5284590;28;20440;-71
2022/11/23 11:46:24;;;;;;;6.45;2.00;;;;;;;14.19;55.95;99454.47;5283871;28;20066;-71
2022/11/23 11:49:17;;;;;;;8.10;2.10;;;;;;;14.49;55.39;99459.13;5282947;28;20028;-72
2022/11/23 11:51:57;;;;;;;7.60;2.10;;;;;;;14.47;53.99;99439.13;5284555;28;20107;-72
2022/11/23 11:54:41;;;;;;;8.88;2.08;;;;;;;15.17;53.53;99439.91;5283640;28;20032;-71
2022/11/23 11:57:29;;;;;;;6.40;2.47;;;;;;;15.49;50.99;99440.81;5284360;28;20391;-71
2022/11/23 12:00:04;;;;;;;4.43;1.88;;;;;;;16.52;49.42;99430.69;5283880;28;20038;-72
2022/11/23 12:02:47;;;;;;;7.93;2.10;;;;;;;15.75;48.76;99435.88;5284583;28;20024;-71